createdAt,value
2018-10-06T00:01:38.879Z,14.50
2018-10-06T00:04:07.211Z,14.50
2018-10-06T00:06:35.287Z,14.50
2018-10-06T00:09:04.023Z,14.50
2018-10-06T00:11:32.792Z,14.50
2018-10-06T00:14:01.165Z,14.50
2018-10-06T00:16:29.408Z,14.40
2018-10-06T00:18:57.554Z,14.40
2018-10-06T00:21:26.249Z,14.40
2018-10-06T00:23:54.631Z,14.40
2018-10-06T00:26:23.225Z,14.40
2018-10-06T00:28:51.607Z,14.30
2018-10-06T00:31:20.127Z,14.30
2018-10-06T00:33:48.620Z,14.30
2018-10-06T00:36:17.120Z,14.30
2018-10-06T00:38:45.211Z,14.20
2018-10-06T00:41:13.806Z,14.20
2018-10-06T00:43:41.855Z,14.20
2018-10-06T00:46:10.227Z,14.20
2018-10-06T00:48:38.475Z,14.10
2018-10-06T00:51:06.993Z,14.10
2018-10-06T00:53:35.563Z,14.10
2018-10-06T00:56:03.963Z,14.00
2018-10-06T00:58:32.441Z,14.00
2018-10-06T01:01:01.046Z,13.80
2018-10-06T01:03:29.270Z,13.80
2018-10-06T01:05:57.664Z,13.80
2018-10-06T01:08:26.063Z,13.80
2018-10-06T01:10:54.421Z,13.80
2018-10-06T01:13:22.895Z,13.80
2018-10-06T01:15:51.002Z,13.80
2018-10-06T01:18:19.903Z,13.80
2018-10-06T01:20:48.522Z,13.80
2018-10-06T01:23:16.666Z,13.70
2018-10-06T01:25:44.972Z,13.70
2018-10-06T01:28:14.163Z,13.70
2018-10-06T01:30:42.684Z,13.70
2018-10-06T01:33:11.630Z,13.70
2018-10-06T01:35:39.700Z,13.70
2018-10-06T01:38:07.799Z,13.60
2018-10-06T01:40:35.942Z,13.60
2018-10-06T01:43:04.109Z,13.60
2018-10-06T01:45:32.176Z,13.60
2018-10-06T01:48:00.254Z,13.50
2018-10-06T01:50:28.509Z,13.50
2018-10-06T01:52:56.619Z,13.50
2018-10-06T01:55:24.700Z,13.50
2018-10-06T01:57:52.771Z,13.50
2018-10-06T02:00:20.826Z,13.40
2018-10-06T02:02:48.995Z,13.40
2018-10-06T02:05:17.074Z,13.40
2018-10-06T02:07:45.146Z,13.40
2018-10-06T02:10:13.219Z,13.40
2018-10-06T02:12:41.302Z,13.30
2018-10-06T02:15:09.383Z,13.30
2018-10-06T02:17:37.484Z,13.30
2018-10-06T02:20:05.550Z,13.20
2018-10-06T02:22:33.611Z,13.20
2018-10-06T02:25:01.672Z,13.20
2018-10-06T02:27:29.736Z,13.20
2018-10-06T02:29:57.836Z,13.10
2018-10-06T02:32:25.881Z,13.10
2018-10-06T02:34:53.955Z,13.10
2018-10-06T02:39:50.656Z,13.10
2018-10-06T02:42:18.734Z,13.00
2018-10-06T02:44:46.803Z,13.00
2018-10-06T02:47:14.930Z,13.00
2018-10-06T02:49:42.998Z,13.00
2018-10-06T02:52:11.074Z,13.00
2018-10-06T02:54:39.143Z,13.00
2018-10-06T02:57:07.411Z,12.90
2018-10-06T02:59:35.490Z,12.90
2018-10-06T03:02:03.579Z,12.90
2018-10-06T03:04:31.638Z,12.90
2018-10-06T03:06:59.814Z,12.90
2018-10-06T03:09:27.882Z,12.90
2018-10-06T03:11:55.950Z,12.90
2018-10-06T03:14:24.010Z,12.80
2018-10-06T03:16:52.418Z,12.80
2018-10-06T03:19:20.506Z,12.80
2018-10-06T03:21:48.571Z,12.80
2018-10-06T03:24:16.634Z,12.80
2018-10-06T03:26:44.703Z,12.80
2018-10-06T03:29:12.928Z,12.70
2018-10-06T03:31:40.978Z,12.70
2018-10-06T03:34:09.161Z,12.70
2018-10-06T03:36:37.243Z,12.70
2018-10-06T03:39:06.054Z,12.70
2018-10-06T03:41:34.535Z,12.70
2018-10-06T03:44:02.601Z,12.60
2018-10-06T03:46:30.675Z,12.60
2018-10-06T03:49:00.186Z,12.60
2018-10-06T03:51:28.641Z,12.60
2018-10-06T03:53:56.996Z,12.60
2018-10-06T03:56:25.468Z,12.60
2018-10-06T03:58:53.757Z,12.60
2018-10-06T04:01:21.815Z,12.50
2018-10-06T04:03:50.783Z,12.50
2018-10-06T04:06:18.917Z,12.50
2018-10-06T04:08:47.632Z,12.50
2018-10-06T04:11:15.961Z,12.50
2018-10-06T04:13:44.411Z,12.50
2018-10-06T04:16:12.495Z,12.50
2018-10-06T04:21:08.458Z,12.50
2018-10-06T04:23:36.523Z,12.50
2018-10-06T04:26:04.647Z,12.40
2018-10-06T04:28:32.727Z,12.40
2018-10-06T04:31:00.802Z,12.40
2018-10-06T04:33:28.889Z,12.40
2018-10-06T04:35:56.957Z,12.40
2018-10-06T04:38:25.038Z,12.40
2018-10-06T04:40:53.099Z,12.40
2018-10-06T04:43:21.171Z,12.30
2018-10-06T04:45:49.233Z,12.40
2018-10-06T04:48:17.298Z,12.30
2018-10-06T04:50:45.411Z,12.30
2018-10-06T04:53:13.491Z,12.30
2018-10-06T04:55:41.554Z,12.30
2018-10-06T04:58:09.676Z,12.30
2018-10-06T05:00:37.754Z,12.30
2018-10-06T05:03:05.987Z,12.30
2018-10-06T05:05:34.082Z,12.20
2018-10-06T05:08:02.151Z,12.20
2018-10-06T05:10:30.243Z,12.20
2018-10-06T05:12:58.329Z,12.20
2018-10-06T05:15:26.410Z,12.20
2018-10-06T05:17:55.122Z,12.20
2018-10-06T05:20:23.175Z,12.20
2018-10-06T05:22:51.238Z,12.10
2018-10-06T05:25:19.677Z,12.10
2018-10-06T05:27:48.115Z,12.10
2018-10-06T05:30:16.540Z,12.10
2018-10-06T05:32:45.066Z,12.10
2018-10-06T05:35:13.115Z,12.10
2018-10-06T05:37:41.226Z,12.10
2018-10-06T05:40:09.636Z,12.10
2018-10-06T05:42:37.909Z,12.00
2018-10-06T05:45:06.055Z,12.00
2018-10-06T05:47:34.399Z,12.00
2018-10-06T05:50:02.506Z,12.00
2018-10-06T05:52:30.642Z,12.00
2018-10-06T05:54:58.749Z,12.00
2018-10-06T05:57:26.960Z,12.00
2018-10-06T05:59:55.042Z,12.00
2018-10-06T06:02:23.234Z,12.00
2018-10-06T06:04:51.377Z,12.00
2018-10-06T06:07:19.539Z,12.00
2018-10-06T06:09:47.692Z,12.00
2018-10-06T06:12:15.758Z,12.00
2018-10-06T06:14:43.848Z,12.00
2018-10-06T06:17:11.922Z,12.00
2018-10-06T06:19:40.143Z,12.00
2018-10-06T06:22:08.298Z,12.00
2018-10-06T06:24:36.343Z,12.00
2018-10-06T06:27:04.412Z,12.00
2018-10-06T06:29:32.490Z,12.10
2018-10-06T06:32:00.555Z,12.10
2018-10-06T06:34:28.637Z,12.10
2018-10-06T06:36:56.726Z,12.10
2018-10-06T06:39:24.951Z,12.20
2018-10-06T06:41:53.013Z,12.20
2018-10-06T06:44:21.211Z,12.20
2018-10-06T06:46:49.198Z,12.30
2018-10-06T06:49:17.293Z,12.30
2018-10-06T06:51:45.377Z,12.30
2018-10-06T06:54:13.462Z,12.30
2018-10-06T06:56:41.540Z,12.40
2018-10-06T06:59:09.641Z,12.50
2018-10-06T07:01:37.734Z,12.50
2018-10-06T07:04:05.934Z,12.60
2018-10-06T07:06:34.071Z,12.60
2018-10-06T07:09:02.165Z,12.70
2018-10-06T07:11:30.544Z,12.80
2018-10-06T07:13:58.652Z,12.80
2018-10-06T07:16:26.743Z,12.90
2018-10-06T07:18:54.898Z,13.00
2018-10-06T07:21:23.000Z,13.00
2018-10-06T07:23:51.082Z,13.10
2018-10-06T07:26:19.178Z,13.20
2018-10-06T07:28:47.300Z,13.30
2018-10-06T07:31:15.395Z,13.40
2018-10-06T07:33:43.475Z,13.50
2018-10-06T07:36:11.565Z,13.50
2018-10-06T07:38:39.641Z,13.60
2018-10-06T07:41:07.730Z,13.70
2018-10-06T07:43:36.618Z,13.80
2018-10-06T07:46:04.809Z,13.90
2018-10-06T07:48:32.899Z,14.00
2018-10-06T07:51:00.977Z,14.10
2018-10-06T07:53:29.280Z,14.20
2018-10-06T07:55:57.699Z,14.30
2018-10-06T07:58:26.963Z,14.40
2018-10-06T08:00:55.683Z,14.60
2018-10-06T08:03:23.766Z,14.70
2018-10-06T08:05:52.835Z,14.80
2018-10-06T08:08:21.711Z,14.90
2018-10-06T08:10:49.853Z,15.00
2018-10-06T08:13:18.095Z,15.10
2018-10-06T08:15:46.207Z,15.30
2018-10-06T08:18:14.312Z,15.40
2018-10-06T08:20:42.399Z,15.50
2018-10-06T08:23:10.909Z,15.60
2018-10-06T08:25:39.057Z,15.80
2018-10-06T08:28:07.140Z,15.80
2018-10-06T08:30:35.314Z,15.90
2018-10-06T08:33:03.409Z,16.10
2018-10-06T08:35:31.498Z,16.20
2018-10-06T08:37:59.746Z,16.30
2018-10-06T08:40:38.958Z,16.30
2018-10-06T08:43:07.251Z,16.50
2018-10-06T08:45:35.389Z,16.60
2018-10-06T08:48:03.487Z,16.70
2018-10-06T08:50:31.622Z,16.80
2018-10-06T08:52:59.886Z,16.90
2018-10-06T08:55:27.991Z,17.00
2018-10-06T08:57:56.072Z,17.10
2018-10-06T09:00:24.174Z,17.20
2018-10-06T09:02:52.307Z,17.30
2018-10-06T09:05:20.376Z,17.30
2018-10-06T09:07:48.502Z,17.40
2018-10-06T09:10:16.598Z,17.50
2018-10-06T09:12:44.679Z,17.60
2018-10-06T09:15:12.774Z,17.70
2018-10-06T09:17:41.075Z,17.80
2018-10-06T09:20:09.259Z,17.80
2018-10-06T09:22:38.470Z,17.90
2018-10-06T09:25:06.943Z,18.00
2018-10-06T09:27:35.056Z,18.10
2018-10-06T09:30:03.127Z,18.10
2018-10-06T09:32:31.199Z,18.20
2018-10-06T09:34:59.283Z,18.30
2018-10-06T09:37:27.415Z,18.40
2018-10-06T09:39:55.840Z,18.40
2018-10-06T09:42:24.174Z,18.50
2018-10-06T09:44:52.184Z,18.60
2018-10-06T09:47:20.273Z,18.70
2018-10-06T09:49:48.580Z,18.70
2018-10-06T09:52:16.775Z,18.80
2018-10-06T09:54:45.515Z,18.90
2018-10-06T09:57:13.875Z,18.90
2018-10-06T09:59:42.002Z,19.00
2018-10-06T10:02:15.734Z,19.00
2018-10-06T10:04:43.815Z,19.10
2018-10-06T10:07:11.896Z,19.20
2018-10-06T10:09:40.080Z,19.30
2018-10-06T10:12:08.191Z,19.30
2018-10-06T10:14:36.260Z,19.30
2018-10-06T10:17:04.480Z,19.40
2018-10-06T10:19:32.567Z,19.50
2018-10-06T10:22:00.809Z,19.50
2018-10-06T10:24:28.894Z,19.60
2018-10-06T10:26:56.968Z,19.70
2018-10-06T10:29:25.072Z,19.80
2018-10-06T10:31:53.160Z,19.90
2018-10-06T10:34:21.423Z,19.90
2018-10-06T10:36:49.523Z,20.00
2018-10-06T10:39:17.680Z,20.10
2018-10-06T10:41:45.715Z,20.20
2018-10-06T10:44:13.939Z,20.20
2018-10-06T10:46:41.971Z,20.30
2018-10-06T10:49:10.090Z,20.40
2018-10-06T10:51:38.376Z,20.50
2018-10-06T10:54:06.443Z,20.50
2018-10-06T10:58:04.012Z,20.60
2018-10-06T11:00:32.178Z,20.70
2018-10-06T11:03:00.208Z,20.80
2018-10-06T11:05:28.280Z,20.80
2018-10-06T11:07:56.368Z,20.90
2018-10-06T11:10:24.478Z,20.90
2018-10-06T11:12:52.591Z,21.00
2018-10-06T11:15:20.677Z,21.00
2018-10-06T11:17:48.786Z,21.10
2018-10-06T11:20:17.237Z,21.20
2018-10-06T11:22:45.460Z,21.20
2018-10-06T11:25:13.547Z,21.30
2018-10-06T11:27:47.169Z,21.30
2018-10-06T11:30:15.308Z,21.40
2018-10-06T11:32:43.396Z,21.40
2018-10-06T11:35:11.479Z,21.50
2018-10-06T11:37:39.826Z,21.60
2018-10-06T11:40:07.673Z,21.70
2018-10-06T11:42:35.803Z,21.80
2018-10-06T11:45:03.939Z,21.90
2018-10-06T11:47:32.039Z,21.90
2018-10-06T11:50:00.358Z,22.00
2018-10-06T11:52:28.371Z,22.00
2018-10-06T11:54:56.529Z,22.10
2018-10-06T11:57:24.647Z,22.20
2018-10-06T11:59:52.763Z,22.20
2018-10-06T12:02:20.839Z,22.30
2018-10-06T12:04:48.921Z,22.30
2018-10-06T12:07:17.103Z,22.40
2018-10-06T12:09:45.197Z,22.50
2018-10-06T12:12:13.315Z,22.50
2018-10-06T12:14:41.416Z,22.60
2018-10-06T12:17:09.608Z,22.60
2018-10-06T12:19:37.707Z,22.70
2018-10-06T12:22:06.979Z,22.70
2018-10-06T12:24:35.062Z,22.80
2018-10-06T12:27:03.139Z,22.80
2018-10-06T12:29:31.268Z,22.90
2018-10-06T12:31:59.479Z,22.90
2018-10-06T12:34:27.562Z,23.00
2018-10-06T12:36:55.724Z,23.10
2018-10-06T12:39:23.821Z,23.10
2018-10-06T12:41:52.003Z,23.20
2018-10-06T12:44:20.132Z,23.20
2018-10-06T12:46:48.250Z,23.30
2018-10-06T12:49:16.394Z,23.40
2018-10-06T12:51:44.589Z,23.40
2018-10-06T12:54:12.801Z,23.50
2018-10-06T12:56:40.907Z,23.50
2018-10-06T12:59:09.061Z,23.60
2018-10-06T13:01:37.147Z,23.60
2018-10-06T13:04:05.267Z,23.70
2018-10-06T13:06:33.360Z,23.80
2018-10-06T13:09:01.467Z,23.80
2018-10-06T13:11:29.572Z,23.90
2018-10-06T13:13:57.689Z,23.90
2018-10-06T13:16:25.833Z,24.00
2018-10-06T13:18:53.915Z,24.10
2018-10-06T13:21:22.016Z,24.10
2018-10-06T13:23:50.119Z,24.20
2018-10-06T13:26:18.205Z,24.20
2018-10-06T13:28:46.338Z,24.30
2018-10-06T13:31:14.447Z,24.40
2018-10-06T13:33:42.527Z,24.40
2018-10-06T13:36:10.680Z,24.40
2018-10-06T13:38:38.783Z,24.50
2018-10-06T13:41:07.153Z,24.50
2018-10-06T13:43:35.511Z,24.50
2018-10-06T13:46:03.623Z,24.60
2018-10-06T13:48:31.806Z,24.60
2018-10-06T13:50:59.954Z,24.60
2018-10-06T13:53:28.755Z,24.70
2018-10-06T13:55:57.023Z,24.80
2018-10-06T13:58:25.225Z,24.80
2018-10-06T14:00:53.331Z,24.90
2018-10-06T14:03:21.531Z,25.00
2018-10-06T14:05:49.633Z,25.00
2018-10-06T14:08:17.745Z,25.00
2018-10-06T14:10:45.837Z,25.10
2018-10-06T14:13:13.923Z,25.10
2018-10-06T14:15:42.042Z,25.20
2018-10-06T14:18:10.398Z,25.20
2018-10-06T14:20:38.533Z,25.20
2018-10-06T14:23:06.634Z,25.30
2018-10-06T14:25:34.707Z,25.20
2018-10-06T14:28:02.836Z,25.30
2018-10-06T14:30:30.949Z,25.30
2018-10-06T14:32:59.243Z,25.30
2018-10-06T14:35:27.575Z,25.30
2018-10-06T14:37:55.672Z,25.40
2018-10-06T14:40:24.101Z,25.40
2018-10-06T14:42:52.204Z,25.40
2018-10-06T14:45:20.287Z,25.40
2018-10-06T14:47:48.371Z,25.30
2018-10-06T14:50:16.543Z,25.30
2018-10-06T14:52:44.608Z,25.30
2018-10-06T14:55:12.679Z,25.20
2018-10-06T14:57:40.766Z,25.20
2018-10-06T15:00:09.183Z,25.10
2018-10-06T15:02:37.308Z,25.10
2018-10-06T15:05:05.431Z,25.00
2018-10-06T15:07:33.569Z,25.00
2018-10-06T15:10:01.691Z,24.90
2018-10-06T15:12:29.765Z,24.90
2018-10-06T15:14:58.177Z,24.90
2018-10-06T15:17:26.252Z,24.80
2018-10-06T15:20:06.116Z,24.80
2018-10-06T15:22:34.222Z,24.80
2018-10-06T15:25:02.336Z,24.70
2018-10-06T15:27:30.411Z,24.70
2018-10-06T15:29:58.877Z,24.70
2018-10-06T15:32:27.070Z,24.60
2018-10-06T15:34:55.831Z,24.60
2018-10-06T15:37:23.911Z,24.60
2018-10-06T15:39:52.002Z,24.60
2018-10-06T15:42:20.103Z,24.50
2018-10-06T15:44:50.875Z,24.50
2018-10-06T15:47:18.977Z,24.40
2018-10-06T15:49:47.208Z,24.30
2018-10-06T15:52:17.364Z,24.30
2018-10-06T15:54:46.137Z,24.30
2018-10-06T15:57:14.237Z,24.20
2018-10-06T15:59:42.339Z,24.20
2018-10-06T16:02:10.450Z,24.10
2018-10-06T16:04:38.661Z,24.10
2018-10-06T16:07:07.233Z,24.00
2018-10-06T16:09:35.310Z,24.00
2018-10-06T16:12:05.239Z,23.90
2018-10-06T16:14:33.954Z,23.80
2018-10-06T16:17:02.887Z,23.70
2018-10-06T16:19:31.135Z,23.70
2018-10-06T16:21:59.281Z,23.60
2018-10-06T16:24:27.417Z,23.50
2018-10-06T16:26:55.523Z,23.50
2018-10-06T16:29:23.607Z,23.40
2018-10-06T16:31:51.735Z,23.30
2018-10-06T16:34:19.801Z,23.30
2018-10-06T16:36:47.875Z,23.20
2018-10-06T16:39:15.936Z,23.20
2018-10-06T16:41:44.025Z,23.10
2018-10-06T16:44:12.098Z,23.00
2018-10-06T16:46:40.225Z,22.90
2018-10-06T16:49:08.400Z,22.80
2018-10-06T16:51:36.493Z,22.80
2018-10-06T16:54:04.879Z,22.70
2018-10-06T16:56:32.985Z,22.70
2018-10-06T16:59:01.087Z,22.60
2018-10-06T17:01:29.180Z,22.50
2018-10-06T17:03:57.283Z,22.50
2018-10-06T17:06:25.415Z,22.30
2018-10-06T17:08:53.451Z,22.20
2018-10-06T17:11:21.566Z,22.20
2018-10-06T17:13:49.652Z,22.20
2018-10-06T17:16:17.785Z,22.10
2018-10-06T17:18:45.969Z,22.10
2018-10-06T17:21:14.148Z,22.00
2018-10-06T17:23:42.275Z,22.00
2018-10-06T17:26:10.347Z,21.90
2018-10-06T17:28:40.463Z,21.80
2018-10-06T17:31:08.646Z,21.80
2018-10-06T17:33:36.693Z,21.70
2018-10-06T17:36:04.946Z,21.70
2018-10-06T17:38:33.287Z,21.60
2018-10-06T17:41:01.379Z,21.60
2018-10-06T17:43:30.531Z,21.50
2018-10-06T17:45:58.772Z,21.50
2018-10-06T17:48:26.953Z,21.50
2018-10-06T17:50:55.343Z,21.40
2018-10-06T17:53:23.435Z,21.40
2018-10-06T17:55:51.550Z,21.40
2018-10-06T17:58:19.726Z,21.30
2018-10-06T18:00:47.827Z,21.20
2018-10-06T18:03:15.944Z,21.20
2018-10-06T18:05:44.010Z,21.20
2018-10-06T18:08:12.087Z,21.20
2018-10-06T18:10:40.195Z,21.20
2018-10-06T18:13:08.290Z,21.20
2018-10-06T18:15:36.357Z,21.20
2018-10-06T18:18:04.530Z,21.10
2018-10-06T18:20:32.836Z,21.10
2018-10-06T18:23:00.770Z,21.10
2018-10-06T18:25:28.867Z,21.00
2018-10-06T18:27:57.042Z,21.00
2018-10-06T18:30:25.188Z,21.00
2018-10-06T18:32:53.504Z,21.00
2018-10-06T18:35:21.620Z,20.90
2018-10-06T18:37:49.750Z,20.90
2018-10-06T18:40:17.859Z,20.90
2018-10-06T18:42:45.935Z,20.80
2018-10-06T18:45:14.020Z,20.80
2018-10-06T18:47:57.937Z,20.70
2018-10-06T18:50:26.106Z,20.60
2018-10-06T18:52:54.222Z,20.40
2018-10-06T18:55:22.299Z,20.40
2018-10-06T18:57:50.444Z,20.40
2018-10-06T19:00:18.604Z,20.40
2018-10-06T19:02:47.727Z,20.50
2018-10-06T19:05:15.809Z,20.40
2018-10-06T19:07:44.139Z,20.40
2018-10-06T19:10:12.282Z,20.40
2018-10-06T19:12:41.331Z,20.30
2018-10-06T19:15:09.489Z,20.30
2018-10-06T19:17:37.563Z,20.20
2018-10-06T19:20:06.602Z,20.20
2018-10-06T19:22:34.703Z,20.20
2018-10-06T19:25:02.767Z,20.10
2018-10-06T19:27:32.067Z,20.10
2018-10-06T19:30:00.235Z,20.10
2018-10-06T19:32:28.309Z,20.00
2018-10-06T19:34:56.445Z,20.00
2018-10-06T19:37:24.535Z,20.00
2018-10-06T19:39:52.862Z,19.90
2018-10-06T19:42:20.970Z,19.80
2018-10-06T19:44:49.268Z,19.70
2018-10-06T19:47:17.360Z,19.60
2018-10-06T19:49:45.459Z,19.60
2018-10-06T19:52:13.638Z,19.60
2018-10-06T19:54:41.711Z,19.60
2018-10-06T19:57:09.778Z,19.60
2018-10-06T19:59:41.715Z,19.60
2018-10-06T20:02:10.164Z,19.50
2018-10-06T20:04:38.281Z,19.50
2018-10-06T20:07:10.910Z,19.40
2018-10-06T20:09:39.090Z,19.30
2018-10-06T20:12:07.277Z,19.30
2018-10-06T20:14:35.663Z,19.30
2018-10-06T20:17:03.790Z,19.20
2018-10-06T20:19:32.530Z,19.20
2018-10-06T20:22:01.787Z,19.10
2018-10-06T20:24:29.882Z,19.10
2018-10-06T20:26:58.004Z,19.10
2018-10-06T20:29:26.707Z,19.10
2018-10-06T20:31:54.802Z,19.00
2018-10-06T20:34:22.894Z,19.00
2018-10-06T20:36:51.027Z,19.00
2018-10-06T20:39:19.156Z,18.90
2018-10-06T20:41:47.359Z,18.90
2018-10-06T20:44:15.483Z,18.90
2018-10-06T20:46:43.579Z,18.90
2018-10-06T20:49:11.659Z,18.90
2018-10-06T20:51:39.730Z,18.90
2018-10-06T20:54:07.824Z,18.90
2018-10-06T20:56:36.559Z,18.80
2018-10-06T20:59:04.842Z,18.80
2018-10-06T21:01:47.280Z,18.80
2018-10-06T21:04:15.334Z,18.80
2018-10-06T21:06:43.407Z,18.80
2018-10-06T21:09:12.580Z,18.80
2018-10-06T21:11:41.134Z,18.70
2018-10-06T21:14:09.241Z,18.70
2018-10-06T21:16:38.124Z,18.70
2018-10-06T21:19:07.095Z,18.70
2018-10-06T21:21:35.191Z,18.70
2018-10-06T21:24:03.263Z,18.60
2018-10-06T21:26:31.345Z,18.60
2018-10-06T21:28:59.449Z,18.60
2018-10-06T21:31:29.641Z,18.60
2018-10-06T21:33:57.641Z,18.50
2018-10-06T21:36:26.266Z,18.50
2018-10-06T21:38:54.412Z,18.50
2018-10-06T21:41:22.414Z,18.30
2018-10-06T21:43:50.617Z,18.30
2018-10-06T21:46:18.959Z,18.30
2018-10-06T21:48:47.360Z,18.30
2018-10-06T21:51:15.479Z,18.30
2018-10-06T21:53:43.556Z,18.30
2018-10-06T21:56:11.647Z,18.30
2018-10-06T21:58:39.779Z,18.30
2018-10-06T22:01:11.167Z,18.30
2018-10-06T22:03:39.919Z,18.30
2018-10-06T22:06:08.136Z,18.20
2018-10-06T22:08:36.442Z,18.20
2018-10-06T22:11:04.684Z,18.20
2018-10-06T22:13:32.773Z,18.10
2018-10-06T22:16:00.863Z,18.10
2018-10-06T22:18:28.965Z,18.10
2018-10-06T22:20:57.090Z,18.10
2018-10-06T22:23:25.477Z,18.00
2018-10-06T22:25:53.570Z,18.00
2018-10-06T22:28:21.650Z,18.00
2018-10-06T22:30:49.730Z,17.90
2018-10-06T22:33:17.927Z,17.90
2018-10-06T22:35:48.094Z,17.90
2018-10-06T22:40:49.386Z,17.80
2018-10-06T22:43:27.546Z,17.90
2018-10-06T22:46:00.698Z,17.80
2018-10-06T22:48:36.100Z,17.70
2018-10-06T22:51:42.620Z,17.60
2018-10-06T22:54:18.769Z,17.60
2018-10-06T22:56:53.467Z,17.50
2018-10-06T23:00:14.839Z,17.50
2018-10-06T23:02:55.909Z,17.40
2018-10-06T23:05:24.733Z,17.30
2018-10-06T23:07:57.104Z,17.20
2018-10-06T23:10:25.176Z,17.20
2018-10-06T23:13:16.868Z,17.10
2018-10-06T23:15:48.515Z,17.00
2018-10-06T23:18:21.388Z,17.00
2018-10-06T23:20:56.141Z,16.90
2018-10-06T23:23:28.174Z,16.90
2018-10-06T23:25:56.980Z,16.80
2018-10-06T23:28:32.054Z,16.80
2018-10-06T23:31:02.374Z,16.70
2018-10-06T23:33:34.509Z,16.70
2018-10-06T23:36:06.842Z,16.60
2018-10-06T23:38:42.330Z,16.60
2018-10-06T23:41:16.968Z,16.50
2018-10-06T23:43:49.991Z,16.50
2018-10-06T23:46:19.561Z,16.50
2018-10-06T23:48:47.627Z,16.40
2018-10-06T23:51:15.712Z,16.40
2018-10-06T23:53:43.791Z,16.40
2018-10-06T23:56:13.883Z,16.30
2018-10-06T23:58:41.953Z,16.30
